createdAt,value
2022-12-11T00:00:15.989Z,96332.28
2022-12-11T00:03:19.409Z,96325.09
2022-12-11T00:06:23.441Z,96324.25
2022-12-11T00:09:26.790Z,96310.09
2022-12-11T00:12:32.712Z,96305.59
2022-12-11T00:15:35.495Z,96289.59
2022-12-11T00:18:38.412Z,96291.22
2022-12-11T00:21:41.207Z,96286.78
2022-12-11T00:24:43.730Z,96289.34
2022-12-11T00:27:47.513Z,96280.53
2022-12-11T00:30:50.285Z,96269.06
2022-12-11T00:33:53.073Z,96273.41
2022-12-11T00:36:55.624Z,96272.50
2022-12-11T00:39:58.486Z,96294.66
2022-12-11T00:43:01.321Z,96274.13
2022-12-11T00:46:04.387Z,96271.56
2022-12-11T00:49:07.114Z,96257.84
2022-12-11T00:52:10.873Z,96270.69
2022-12-11T00:55:13.715Z,96258.37
2022-12-11T00:58:16.688Z,96273.50
2022-12-11T01:01:23.574Z,96272.56
2022-12-11T01:04:27.622Z,96265.53
2022-12-11T01:07:30.092Z,96276.25
2022-12-11T01:10:34.622Z,96282.41
2022-12-11T01:13:38.193Z,96270.94
2022-12-11T01:16:41.174Z,96277.16
2022-12-11T01:19:43.654Z,96276.38
2022-12-11T01:22:48.533Z,96277.22
2022-12-11T01:25:51.123Z,96279.09
2022-12-11T01:28:53.881Z,96283.50
2022-12-11T01:31:56.458Z,96285.25
2022-12-11T01:34:59.322Z,96287.19
2022-12-11T01:38:01.932Z,96298.84
2022-12-11T01:41:04.803Z,96298.91
2022-12-11T01:44:28.560Z,96299.91
2022-12-11T01:47:31.353Z,96284.09
2022-12-11T01:50:38.822Z,96284.09
2022-12-11T01:53:45.952Z,96276.44
2022-12-11T01:56:50.492Z,96277.34
2022-12-11T01:59:53.284Z,96281.81
2022-12-11T02:02:55.859Z,96281.25
2022-12-11T02:06:00.467Z,96288.47
2022-12-11T02:09:05.279Z,96284.09
2022-12-11T02:12:34.129Z,96290.41
2022-12-11T02:15:59.017Z,96287.81
2022-12-11T02:19:10.602Z,96292.28
2022-12-11T02:23:00.939Z,96285.28
2022-12-11T02:26:37.017Z,96292.69
2022-12-11T02:30:02.809Z,96290.16
2022-12-11T02:33:07.313Z,96298.19
2022-12-11T02:36:10.648Z,96287.78
2022-12-11T02:39:15.923Z,96295.75
2022-12-11T02:42:20.028Z,96301.25
2022-12-11T02:45:23.686Z,96290.13
2022-12-11T02:48:26.636Z,96295.75
2022-12-11T02:51:32.389Z,96291.38
2022-12-11T02:54:36.971Z,96285.22
2022-12-11T02:57:44.662Z,96292.84
2022-12-11T03:00:47.464Z,96288.53
2022-12-11T03:03:50.208Z,96283.34
2022-12-11T03:06:55.530Z,96275.84
2022-12-11T03:09:58.424Z,96273.94
2022-12-11T03:13:01.312Z,96276.78
2022-12-11T03:16:36.199Z,96274.44
2022-12-11T03:19:43.638Z,96275.38
2022-12-11T03:23:08.126Z,96275.16
2022-12-11T03:26:12.616Z,96282.34
2022-12-11T03:29:20.354Z,96278.84
2022-12-11T03:32:25.884Z,96257.94
2022-12-11T03:35:39.464Z,96253.59
2022-12-11T03:38:54.763Z,96260.22
2022-12-11T03:41:58.872Z,96256.72
2022-12-11T03:45:02.655Z,96261.44
2022-12-11T03:48:07.277Z,96250.91
2022-12-11T03:51:10.015Z,96243.97
2022-12-11T03:54:13.088Z,96249.19
2022-12-11T03:57:17.306Z,96251.09
2022-12-11T04:00:21.178Z,96264.47
2022-12-11T04:03:24.515Z,96275.09
2022-12-11T04:06:27.417Z,96273.50
2022-12-11T04:09:30.313Z,96269.69
2022-12-11T04:12:33.470Z,96284.47
2022-12-11T04:15:36.763Z,96275.59
2022-12-11T04:18:57.785Z,96283.81
2022-12-11T04:22:19.452Z,96295.28
2022-12-11T04:25:21.882Z,96285.88
2022-12-11T04:28:25.060Z,96286.00
2022-12-11T04:31:29.987Z,96284.50
2022-12-11T04:34:32.828Z,96291.75
2022-12-11T04:37:36.031Z,96296.19
2022-12-11T04:40:38.902Z,96305.97
2022-12-11T04:43:41.603Z,96302.44
2022-12-11T04:46:44.753Z,96308.47
2022-12-11T04:49:47.477Z,96319.00
2022-12-11T04:52:50.916Z,96320.25
2022-12-11T04:55:53.717Z,96324.84
2022-12-11T04:58:56.881Z,96328.38
2022-12-11T05:01:59.926Z,96341.78
2022-12-11T05:05:07.392Z,96349.87
2022-12-11T05:08:10.207Z,96354.41
2022-12-11T05:11:15.170Z,96363.06
2022-12-11T05:14:18.107Z,96361.22
2022-12-11T05:17:21.855Z,96364.72
2022-12-11T05:20:24.469Z,96356.03
2022-12-11T05:23:28.088Z,96352.47
2022-12-11T05:26:30.644Z,96338.94
2022-12-11T05:29:33.439Z,96356.16
2022-12-11T05:32:36.172Z,96364.47
2022-12-11T05:35:48.715Z,96348.50
2022-12-11T05:38:52.623Z,96361.88
2022-12-11T05:41:55.505Z,96356.47
2022-12-11T05:44:58.113Z,96360.84
2022-12-11T05:48:01.034Z,96367.25
2022-12-11T05:51:04.378Z,96375.09
2022-12-11T05:54:07.207Z,96373.53
2022-12-11T05:57:09.980Z,96356.84
2022-12-11T06:00:13.734Z,96355.03
2022-12-11T06:03:16.604Z,96363.84
2022-12-11T06:06:19.213Z,96380.59
2022-12-11T06:09:22.016Z,96370.03
2022-12-11T06:12:24.498Z,96392.09
2022-12-11T06:15:27.386Z,96392.03
2022-12-11T06:18:30.374Z,96403.44
2022-12-11T06:21:33.922Z,96398.22
2022-12-11T06:24:36.409Z,96407.94
2022-12-11T06:27:39.175Z,96406.28
2022-12-11T06:30:42.865Z,96402.72
2022-12-11T06:33:45.966Z,96408.75
2022-12-11T06:36:48.521Z,96420.47
2022-12-11T06:39:51.269Z,96428.34
2022-12-11T06:42:54.867Z,96424.84
2022-12-11T06:46:03.437Z,96443.34
2022-12-11T06:49:06.459Z,96453.94
2022-12-11T06:52:12.463Z,96434.97
2022-12-11T06:55:17.950Z,96457.37
2022-12-11T06:58:20.750Z,96457.47
2022-12-11T07:01:25.827Z,96476.75
2022-12-11T07:04:30.546Z,96482.97
2022-12-11T07:07:33.215Z,96497.97
2022-12-11T07:10:39.562Z,96503.25
2022-12-11T07:13:42.287Z,96501.34
2022-12-11T07:16:45.618Z,96503.88
2022-12-11T07:19:48.216Z,96497.03
2022-12-11T07:22:51.081Z,96509.91
2022-12-11T07:25:54.903Z,96526.84
2022-12-11T07:29:00.068Z,96508.47
2022-12-11T07:32:02.705Z,96525.03
2022-12-11T07:35:06.038Z,96529.59
2022-12-11T07:38:08.771Z,96532.97
2022-12-11T07:41:13.276Z,96534.63
2022-12-11T07:44:15.859Z,96529.50
2022-12-11T07:47:18.668Z,96542.56
2022-12-11T07:50:22.715Z,96546.22
2022-12-11T07:53:25.520Z,96547.84
2022-12-11T07:56:29.420Z,96547.81
2022-12-11T07:59:33.725Z,96554.66
2022-12-11T08:02:37.778Z,96541.50
2022-12-11T08:05:40.643Z,96541.19
2022-12-11T08:08:43.198Z,96543.69
2022-12-11T08:11:51.261Z,96554.13
2022-12-11T08:14:53.750Z,96568.31
2022-12-11T08:17:56.617Z,96575.50
2022-12-11T08:20:59.174Z,96575.59
2022-12-11T08:24:02.040Z,96595.88
2022-12-11T08:27:04.711Z,96593.28
2022-12-11T08:30:08.382Z,96606.44
2022-12-11T08:33:10.896Z,96600.19
2022-12-11T08:36:16.174Z,96602.09
2022-12-11T08:39:19.164Z,96613.34
2022-12-11T08:42:22.080Z,96626.63
2022-12-11T08:45:24.607Z,96624.78
2022-12-11T08:48:27.628Z,96634.53
2022-12-11T08:51:31.184Z,96639.87
2022-12-11T08:54:34.454Z,96622.69
2022-12-11T08:57:39.803Z,96657.59
2022-12-11T09:00:42.737Z,96653.13
2022-12-11T09:03:45.340Z,96642.72
2022-12-11T09:06:48.574Z,96647.16
2022-12-11T09:09:51.055Z,96653.63
2022-12-11T09:12:53.912Z,96654.59
2022-12-11T09:15:56.577Z,96652.38
2022-12-11T09:19:00.513Z,96668.94
2022-12-11T09:22:03.029Z,96659.34
2022-12-11T09:25:06.375Z,96661.00
2022-12-11T09:28:08.880Z,96667.06
2022-12-11T09:31:14.218Z,96667.78
2022-12-11T09:34:16.939Z,96656.28
2022-12-11T09:37:19.740Z,96651.91
2022-12-11T09:40:22.414Z,96652.78
2022-12-11T09:43:32.915Z,96653.47
2022-12-11T09:46:36.690Z,96667.59
2022-12-11T09:49:41.676Z,96668.38
2022-12-11T09:53:22.902Z,96661.28
2022-12-11T09:56:28.242Z,96658.62
2022-12-11T09:59:51.763Z,96655.09
2022-12-11T10:03:21.782Z,96656.47
2022-12-11T10:06:42.305Z,96651.06
2022-12-11T10:09:57.035Z,96650.41
2022-12-11T10:13:06.692Z,96659.31
2022-12-11T10:16:20.413Z,96671.09
2022-12-11T10:19:29.175Z,96665.88
2022-12-11T10:22:32.739Z,96663.94
2022-12-11T10:25:46.392Z,96656.19
2022-12-11T10:28:49.538Z,96668.41
2022-12-11T10:32:02.336Z,96664.00
2022-12-11T10:35:06.528Z,96676.47
2022-12-11T10:38:15.456Z,96680.00
2022-12-11T10:41:21.105Z,96679.84
2022-12-11T10:44:27.732Z,96688.59
2022-12-11T10:47:30.255Z,96705.97
2022-12-11T10:50:33.939Z,96709.56
2022-12-11T10:53:36.541Z,96687.19
2022-12-11T10:56:39.364Z,96700.63
2022-12-11T10:59:47.266Z,96709.41
2022-12-11T11:02:50.133Z,96718.34
2022-12-11T11:06:23.035Z,96715.09
2022-12-11T11:09:36.429Z,96715.09
2022-12-11T11:12:43.218Z,96703.16
2022-12-11T11:15:46.058Z,96717.44
2022-12-11T11:18:54.592Z,96719.28
2022-12-11T11:22:18.443Z,96724.81
2022-12-11T11:25:23.644Z,96721.59
2022-12-11T11:28:33.283Z,96721.72
2022-12-11T11:31:36.166Z,96725.34
2022-12-11T11:34:39.012Z,96736.69
2022-12-11T11:37:46.247Z,96740.13
2022-12-11T11:41:05.558Z,96741.91
2022-12-11T11:44:12.656Z,96745.41
2022-12-11T11:47:21.810Z,96753.22
2022-12-11T11:50:33.090Z,96752.03
2022-12-11T11:53:40.625Z,96760.53
2022-12-11T11:56:43.922Z,96764.25
2022-12-11T11:59:50.868Z,96759.31
2022-12-11T12:03:15.844Z,96768.22
2022-12-11T12:06:34.510Z,96783.19
2022-12-11T12:09:49.691Z,96780.59
2022-12-11T12:12:58.855Z,96788.53
2022-12-11T12:16:02.154Z,96791.66
2022-12-11T12:19:20.196Z,96776.63
2022-12-11T12:22:28.593Z,96782.06
2022-12-11T12:25:57.800Z,96790.78
2022-12-11T12:29:16.592Z,96787.34
2022-12-11T12:32:22.490Z,96791.91
2022-12-11T12:36:07.206Z,96790.13
2022-12-11T12:39:29.925Z,96790.16
2022-12-11T12:42:37.859Z,96793.00
2022-12-11T12:46:01.190Z,96783.16
2022-12-11T12:49:04.326Z,96787.47
2022-12-11T12:52:13.761Z,96794.44
2022-12-11T12:55:23.637Z,96803.06
2022-12-11T12:58:35.860Z,96811.84
2022-12-11T13:01:38.805Z,96804.91
2022-12-11T13:04:58.882Z,96810.56
2022-12-11T13:08:03.734Z,96819.84
2022-12-11T13:11:11.615Z,96832.38
2022-12-11T13:14:14.026Z,96834.41
2022-12-11T13:17:24.729Z,96837.13
2022-12-11T13:20:30.186Z,96849.72
2022-12-11T13:23:34.332Z,96845.63
2022-12-11T13:26:37.121Z,96867.59
2022-12-11T13:29:42.304Z,96865.16
2022-12-11T13:33:07.909Z,96866.91
2022-12-11T13:36:15.919Z,96876.09
2022-12-11T13:39:28.209Z,96876.09
2022-12-11T13:42:52.303Z,96884.84
2022-12-11T13:45:57.616Z,96889.34
2022-12-11T13:49:07.703Z,96888.53
2022-12-11T13:52:21.686Z,96886.75
2022-12-11T13:55:26.373Z,96882.28
2022-12-11T13:58:30.026Z,96886.84
2022-12-11T14:01:34.126Z,96877.88
2022-12-11T14:04:38.257Z,96902.59
2022-12-11T14:07:52.065Z,96893.84
2022-12-11T14:10:55.154Z,96885.97
2022-12-11T14:14:00.010Z,96884.09
2022-12-11T14:17:03.124Z,96884.50
2022-12-11T14:20:09.122Z,96904.50
2022-12-11T14:23:20.976Z,96914.31
2022-12-11T14:26:24.994Z,96916.09
2022-12-11T14:29:32.878Z,96928.50
2022-12-11T14:32:42.774Z,96931.97
2022-12-11T14:35:46.201Z,96927.69
2022-12-11T14:38:58.840Z,96937.44
2022-12-11T14:42:11.046Z,96917.62
2022-12-11T14:45:25.100Z,96944.59
2022-12-11T14:48:37.220Z,96937.69
2022-12-11T14:51:40.684Z,96947.53
2022-12-11T14:54:47.369Z,96943.94
2022-12-11T14:57:52.461Z,96946.50
2022-12-11T15:01:07.684Z,96958.94
2022-12-11T15:04:20.095Z,96949.28
2022-12-11T15:07:23.705Z,96954.59
2022-12-11T15:10:41.258Z,96955.50
2022-12-11T15:14:03.267Z,96964.47
2022-12-11T15:17:12.695Z,96953.19
2022-12-11T15:20:29.642Z,96967.19
2022-12-11T15:23:35.502Z,96972.69
2022-12-11T15:26:48.314Z,96984.31
2022-12-11T15:29:51.013Z,96980.06
2022-12-11T15:33:09.248Z,96982.78
2022-12-11T15:36:30.531Z,96987.06
2022-12-11T15:39:33.497Z,96984.59
2022-12-11T15:42:40.866Z,96984.69
2022-12-11T15:45:43.930Z,96981.94
2022-12-11T15:48:48.449Z,96990.91
2022-12-11T15:51:51.741Z,96991.94
2022-12-11T15:54:54.334Z,96990.16
2022-12-11T15:57:59.957Z,96980.59
2022-12-11T16:01:03.261Z,96989.31
2022-12-11T16:04:08.360Z,96986.56
2022-12-11T16:07:18.394Z,97001.75
2022-12-11T16:10:21.913Z,96998.16
2022-12-11T16:13:24.701Z,96997.97
2022-12-11T16:16:28.739Z,96988.91
2022-12-11T16:19:31.262Z,97004.00
2022-12-11T16:22:36.827Z,97008.47
2022-12-11T16:25:43.726Z,97002.56
2022-12-11T16:28:46.803Z,97016.75
2022-12-11T16:31:55.197Z,97019.44
2022-12-11T16:35:02.446Z,97018.63
2022-12-11T16:38:05.338Z,97013.34
2022-12-11T16:41:10.108Z,97019.59
2022-12-11T16:44:19.635Z,97015.22
2022-12-11T16:47:27.372Z,97029.31
2022-12-11T16:50:36.511Z,97022.31
2022-12-11T16:53:39.307Z,97026.75
2022-12-11T16:56:42.188Z,97032.19
2022-12-11T16:59:45.110Z,97033.06
2022-12-11T17:02:48.404Z,97035.72
2022-12-11T17:05:51.486Z,97013.13
2022-12-11T17:08:54.140Z,97037.63
2022-12-11T17:11:57.079Z,97030.56
2022-12-11T17:14:59.963Z,97035.87
2022-12-11T17:18:02.764Z,97031.53
2022-12-11T17:21:10.623Z,97039.47
2022-12-11T17:24:13.738Z,97030.63
2022-12-11T17:27:16.385Z,97037.66
2022-12-11T17:30:21.646Z,97033.31
2022-12-11T17:33:24.627Z,97041.16
2022-12-11T17:36:27.952Z,97024.75
2022-12-11T17:39:31.285Z,97033.41
2022-12-11T17:42:34.341Z,97033.53
2022-12-11T17:45:44.838Z,97004.91
2022-12-11T17:48:48.572Z,97040.72
2022-12-11T17:51:53.192Z,97046.78
2022-12-11T17:54:56.383Z,97046.03
2022-12-11T17:58:00.456Z,97051.34
2022-12-11T18:01:09.061Z,97052.28
2022-12-11T18:04:12.139Z,97054.09
2022-12-11T18:07:14.948Z,97053.28
2022-12-11T18:10:19.481Z,97056.88
2022-12-11T18:13:23.169Z,97052.50
2022-12-11T18:16:38.133Z,97059.41
2022-12-11T18:19:45.892Z,97064.88
2022-12-11T18:22:49.607Z,97067.37
2022-12-11T18:25:52.340Z,97049.94
2022-12-11T18:28:55.254Z,97055.09
2022-12-11T18:31:58.044Z,97051.78
2022-12-11T18:35:02.420Z,97052.66
2022-12-11T18:38:05.325Z,97058.03
2022-12-11T18:41:09.827Z,97059.72
2022-12-11T18:44:12.729Z,97072.16
2022-12-11T18:47:16.064Z,97066.87
2022-12-11T18:50:19.763Z,97066.87
2022-12-11T18:53:23.072Z,97063.38
2022-12-11T18:56:25.915Z,97073.09
2022-12-11T18:59:29.005Z,97078.41
2022-12-11T19:02:32.093Z,97077.44
2022-12-11T19:05:36.282Z,97075.66
2022-12-11T19:08:39.206Z,97080.97
2022-12-11T19:11:42.237Z,97081.78
2022-12-11T19:14:44.996Z,97094.12
2022-12-11T19:17:47.995Z,97082.03
2022-12-11T19:20:57.730Z,97110.03
2022-12-11T19:24:09.565Z,97080.41
2022-12-11T19:27:13.845Z,97120.59
2022-12-11T19:30:17.025Z,97119.81
2022-12-11T19:33:21.864Z,97116.34
2022-12-11T19:36:26.517Z,97110.97
2022-12-11T19:39:29.213Z,97111.78
2022-12-11T19:42:32.424Z,97111.75
2022-12-11T19:45:35.716Z,97115.31
2022-12-11T19:48:41.317Z,97116.97
2022-12-11T19:51:44.032Z,97117.03
2022-12-11T19:54:47.243Z,97115.41
2022-12-11T19:57:52.099Z,97114.50
2022-12-11T20:00:55.416Z,97118.06
2022-12-11T20:04:00.482Z,97112.19
2022-12-11T20:07:03.942Z,97112.94
2022-12-11T20:10:07.666Z,97113.03
2022-12-11T20:13:11.143Z,97121.81
2022-12-11T20:16:15.608Z,97121.91
2022-12-11T20:19:18.361Z,97125.41
2022-12-11T20:22:21.480Z,97127.25
2022-12-11T20:25:27.814Z,97129.84
2022-12-11T20:28:30.910Z,97127.09
2022-12-11T20:31:35.441Z,97125.31
2022-12-11T20:34:38.642Z,97131.34
2022-12-11T20:37:41.537Z,97129.75
2022-12-11T20:40:46.856Z,97128.84
2022-12-11T20:43:50.406Z,97124.41
2022-12-11T20:46:53.736Z,97117.59
2022-12-11T20:49:56.477Z,97134.19
2022-12-11T20:52:59.580Z,97139.62
2022-12-11T20:56:03.114Z,97139.62
2022-12-11T20:59:06.847Z,97143.22
2022-12-11T21:02:11.846Z,97130.84
2022-12-11T21:05:15.040Z,97134.56
2022-12-11T21:08:17.969Z,97138.88
2022-12-11T21:11:20.902Z,97121.69
2022-12-11T21:14:25.739Z,97133.94
2022-12-11T21:17:28.644Z,97138.19
2022-12-11T21:20:31.552Z,97150.53
2022-12-11T21:23:34.717Z,97150.66
2022-12-11T21:26:37.581Z,97155.00
2022-12-11T21:29:40.478Z,97165.69
2022-12-11T21:32:43.655Z,97166.56
2022-12-11T21:35:54.312Z,97171.00
2022-12-11T21:38:58.900Z,97167.50
2022-12-11T21:42:01.742Z,97170.16
2022-12-11T21:48:27.426Z,97185.00
2022-12-11T21:51:37.766Z,97178.88
2022-12-11T21:54:42.673Z,97181.56
2022-12-11T21:57:45.331Z,97191.34
2022-12-11T22:00:49.923Z,97191.28
2022-12-11T22:03:53.402Z,97191.25
2022-12-11T22:06:56.174Z,97194.94
2022-12-11T22:09:58.952Z,97200.25
2022-12-11T22:13:01.717Z,97197.69
2022-12-11T22:16:04.908Z,97190.59
2022-12-11T22:19:07.547Z,97190.63
2022-12-11T22:22:11.792Z,97200.34
2022-12-11T22:25:14.745Z,97186.34
2022-12-11T22:28:17.910Z,97195.94
2022-12-11T22:31:22.615Z,97202.91
2022-12-11T22:34:25.523Z,97197.66
2022-12-11T22:37:29.081Z,97189.72
2022-12-11T22:40:32.275Z,97188.87
2022-12-11T22:43:34.754Z,97198.53
2022-12-11T22:46:37.625Z,97209.94
2022-12-11T22:49:40.225Z,97200.28
2022-12-11T22:52:45.345Z,97200.28
2022-12-11T22:55:48.127Z,97205.59
2022-12-11T22:58:51.035Z,97190.66
2022-12-11T23:01:54.020Z,97186.31
2022-12-11T23:04:57.018Z,97184.66
2022-12-11T23:07:59.812Z,97202.25
2022-12-11T23:11:09.272Z,97210.22
2022-12-11T23:14:18.366Z,97207.56
2022-12-11T23:17:21.163Z,97212.03
2022-12-11T23:20:24.179Z,97224.31
2022-12-11T23:23:27.041Z,97215.56
2022-12-11T23:26:30.041Z,97207.66
2022-12-11T23:29:32.883Z,97220.09
2022-12-11T23:32:35.711Z,97216.53
2022-12-11T23:35:38.561Z,97221.81
2022-12-11T23:38:42.513Z,97221.78
2022-12-11T23:41:45.818Z,97228.00
2022-12-11T23:44:48.511Z,97222.81
2022-12-11T23:47:51.377Z,97228.94
2022-12-11T23:50:59.432Z,97219.37
2022-12-11T23:54:02.469Z,97215.81
2022-12-11T23:57:06.290Z,97221.16
